Andrew, Canada
Current Conditions -  °F | °C
As of 5:00 AM on Thursday 23 Oct 2014 (Local Time) from CYED Reporting Station
Clear Clear  
Wind Chill: 39°   Ceiling: Unl
Heat Index: 39°   Visibility: 9mi
Dew Point: 32°   Wind: 3mph
Humidity: 75%   Direction: 250°WSW
Pressure: 29.45"   Gusts: NA
Location:  53.88°N, 112.33°W
Report Text: CYED 231100Z AUTO 25003KT 9SM CLR 04/00 A2945 RMK SLP983
Loading
Personal Weather Stations






























Interactive Weather Map
Tropical Storm Tracking
New forecast layout! Learn more

10-Day Weather Forecast

Advertisements
Track Severe Weather on mobile